createdAt,value
2022-10-11T05:31:34.564Z,9.88
2022-10-11T05:36:56.713Z,9.89
2022-10-11T05:42:17.553Z,9.91
2022-10-11T05:47:41.118Z,9.99
2022-10-11T05:53:03.214Z,10.01
2022-10-11T05:58:25.158Z,9.95
2022-10-11T06:03:46.417Z,9.99
2022-10-11T06:09:07.328Z,10.13
2022-10-11T06:14:32.371Z,10.23
2022-10-11T06:19:53.388Z,10.24
2022-10-11T06:25:14.597Z,10.24
2022-10-11T06:30:35.435Z,10.30
2022-10-11T06:36:01.800Z,10.29
2022-10-11T06:41:28.757Z,10.39
2022-10-11T06:46:51.947Z,10.41
2022-10-11T06:52:13.267Z,10.59
2022-10-11T06:57:33.942Z,10.71
2022-10-11T07:02:54.768Z,10.78
2022-10-11T07:08:15.605Z,10.98
2022-10-11T07:13:37.990Z,11.21
2022-10-11T07:19:01.504Z,11.61
2022-10-11T07:24:22.316Z,11.79
2022-10-11T07:29:44.583Z,12.37
2022-10-11T07:35:05.863Z,12.53
2022-10-11T07:40:27.083Z,12.81
2022-10-11T07:45:53.703Z,13.43
2022-10-11T07:51:18.110Z,13.47
2022-10-11T07:56:40.176Z,13.86
2022-10-11T08:02:01.295Z,14.27
2022-10-11T08:07:21.949Z,14.84
2022-10-11T08:12:42.755Z,15.42
2022-10-11T08:18:03.483Z,16.06
2022-10-11T08:23:24.617Z,16.57
2022-10-11T08:28:45.385Z,17.38
2022-10-11T08:34:06.311Z,18.49
2022-10-11T08:39:27.412Z,20.67
2022-10-11T08:45:10.473Z,29.21
2022-10-11T08:50:33.017Z,39.78
2022-10-11T08:55:55.324Z,43.45
2022-10-11T09:01:21.928Z,45.01
2022-10-11T09:06:53.335Z,46.37
2022-10-11T09:13:02.471Z,46.54
2022-10-11T09:18:42.712Z,45.43
2022-10-11T09:24:06.510Z,46.53
2022-10-11T09:29:49.449Z,43.65
2022-10-11T09:35:21.948Z,37.47
2022-10-11T09:41:19.329Z,30.40
2022-10-11T09:46:42.347Z,25.88
2022-10-11T09:52:06.171Z,23.62
2022-10-11T09:57:29.140Z,22.32
2022-10-11T10:02:52.518Z,22.75
2022-10-11T10:08:24.251Z,21.69
2022-10-11T10:13:55.932Z,21.18
2022-10-11T10:19:25.244Z,21.26
2022-10-11T10:24:49.089Z,21.57
2022-10-11T10:30:09.915Z,21.84
2022-10-11T10:36:03.866Z,20.08
2022-10-11T10:41:26.012Z,20.67
2022-10-11T10:47:05.752Z,21.35
2022-10-11T10:52:37.165Z,21.07
2022-10-11T10:58:15.073Z,21.65
2022-10-11T11:03:52.360Z,21.60
2022-10-11T11:09:29.756Z,21.40
2022-10-11T11:14:59.673Z,21.20
2022-10-11T11:20:24.890Z,21.05
2022-10-11T11:26:10.017Z,19.30
2022-10-11T11:31:40.396Z,19.76
2022-10-11T11:37:11.733Z,19.55
2022-10-11T11:42:50.963Z,20.27
2022-10-11T11:48:18.754Z,19.97
2022-10-11T11:53:51.951Z,19.27
2022-10-11T11:59:26.443Z,19.41
2022-10-11T12:04:49.249Z,19.93
2022-10-11T12:10:31.899Z,20.20
2022-10-11T12:16:12.997Z,20.51
2022-10-11T12:21:40.140Z,20.37
2022-10-11T12:27:43.824Z,19.21
2022-10-11T12:33:16.812Z,18.54
2022-10-11T12:38:40.014Z,18.15
2022-10-11T12:44:28.822Z,17.86
2022-10-11T12:50:20.398Z,18.11
2022-10-11T12:55:53.551Z,18.64
2022-10-11T13:01:18.853Z,19.26
2022-10-11T13:06:49.699Z,19.55
2022-10-11T13:12:18.212Z,20.19
2022-10-11T13:17:40.392Z,20.43
2022-10-11T13:23:01.120Z,20.50
2022-10-11T13:28:23.196Z,19.79
2022-10-11T13:33:45.743Z,18.75
2022-10-11T13:39:07.455Z,18.65
2022-10-11T13:44:30.203Z,19.03
2022-10-11T13:50:22.669Z,18.96
2022-10-11T13:55:54.414Z,18.78
2022-10-11T14:01:37.550Z,18.83
2022-10-11T14:07:02.791Z,18.54
2022-10-11T14:12:39.568Z,18.34
2022-10-11T14:18:02.025Z,18.20
2022-10-11T14:23:23.253Z,18.02
2022-10-11T14:28:44.368Z,17.81
2022-10-11T14:34:05.787Z,17.64
2022-10-11T14:39:29.630Z,17.47
2022-10-11T14:44:50.935Z,17.24
2022-10-11T14:50:35.044Z,17.11
2022-10-11T14:55:56.142Z,16.89
2022-10-11T15:01:17.737Z,16.72
2022-10-11T15:06:40.752Z,16.69
2022-10-11T15:12:01.713Z,16.60
2022-10-11T15:17:22.492Z,16.48
2022-10-11T15:22:43.308Z,16.28
2022-10-11T15:28:04.852Z,16.02
2022-10-11T15:33:26.619Z,15.74
2022-10-11T15:38:48.904Z,15.41
2022-10-11T15:44:09.605Z,15.12
2022-10-11T15:49:30.317Z,14.86
2022-10-11T15:54:51.029Z,14.60
2022-10-11T16:00:12.295Z,14.36
2022-10-11T16:05:33.111Z,14.10
2022-10-11T16:10:54.866Z,13.86
2022-10-11T16:16:16.062Z,13.69
2022-10-11T16:21:36.772Z,13.44
2022-10-11T16:26:57.508Z,13.14
2022-10-11T16:32:18.937Z,12.84
2022-10-11T16:37:40.327Z,12.53
2022-10-11T16:43:07.392Z,12.21
2022-10-11T16:48:28.995Z,12.06
2022-10-11T16:53:50.555Z,11.99
2022-10-11T16:59:12.032Z,11.94
2022-10-11T17:04:33.191Z,11.84
2022-10-11T17:09:53.787Z,11.68
2022-10-11T17:15:14.467Z,11.54
2022-10-11T17:20:35.206Z,11.54
2022-10-11T17:25:56.009Z,11.38
2022-10-11T17:31:17.111Z,11.19
2022-10-11T17:36:38.362Z,11.12
2022-10-11T17:42:04.967Z,11.06
2022-10-11T17:47:26.061Z,10.91
2022-10-11T17:52:47.128Z,10.92
2022-10-11T17:58:08.507Z,10.90
2022-10-11T18:03:29.313Z,10.80
2022-10-11T18:08:50.540Z,10.67
2022-10-11T18:14:11.774Z,10.64
2022-10-11T18:19:32.619Z,10.54
2022-10-11T18:24:53.346Z,10.42
2022-10-11T18:30:14.678Z,10.44
2022-10-11T18:35:35.674Z,10.15
2022-10-11T18:40:56.387Z,10.08
2022-10-11T18:46:17.692Z,10.13
2022-10-11T18:51:42.307Z,10.08
2022-10-11T18:57:03.572Z,10.00
2022-10-11T19:02:24.322Z,10.01
2022-10-11T19:07:45.184Z,9.79
2022-10-11T19:13:06.133Z,9.74
2022-10-11T19:18:26.903Z,9.70
2022-10-11T19:23:48.207Z,9.65
2022-10-11T19:29:20.897Z,9.53
2022-10-11T19:34:41.502Z,9.40
2022-10-11T19:40:03.953Z,9.41
2022-10-11T19:45:24.968Z,9.31
2022-10-11T19:50:45.680Z,9.34
2022-10-11T19:56:15.157Z,9.33
2022-10-11T20:01:36.524Z,9.28
2022-10-11T20:06:57.361Z,9.34
2022-10-11T20:12:18.063Z,9.44
2022-10-11T20:17:48.197Z,9.37
2022-10-11T20:23:09.004Z,9.39
2022-10-11T20:28:31.672Z,9.42
2022-10-11T20:33:58.609Z,9.47
2022-10-11T20:39:19.943Z,9.53
2022-10-11T20:44:40.873Z,9.65
2022-10-11T20:50:01.685Z,9.70
2022-10-11T20:55:22.327Z,9.65
2022-10-11T21:00:43.395Z,9.65
2022-10-11T21:06:04.382Z,9.56
2022-10-11T21:11:25.904Z,9.54
2022-10-11T21:16:46.696Z,9.66
2022-10-11T21:22:07.728Z,9.60
2022-10-11T21:27:28.512Z,9.71
2022-10-11T21:32:50.671Z,9.80
2022-10-11T21:38:12.471Z,9.80
2022-10-11T21:43:35.715Z,9.90
2022-10-11T21:48:57.249Z,9.94
2022-10-11T21:54:18.419Z,9.91
